KIPL/IPL METAR and TAF weather

Enter ICAO airport designator
Station Type Date Time Source
KIPL METAR 2020/09/22 07:53 UTC NOAA

KIPL 220753Z AUTO 34005KT 10SM CLR 30/08 A2980 RMK AO2 SLP092 T03000078 404110206


Station Type Date Time Source
KIPL Decoded METAR 2020/09/22 07:53 UTC NOAA

Imperial, Imperial County Airport, CA, United States (KIPL) 32-50-03N 115-34-43W -15M
Sep 22, 2020 - 03:53 AM EDT / 2020.09.22 0753 UTC
Wind: from the NNW (340 degrees) at 6 MPH (5 KT):0
Visibility: 10 mile(s):0
Sky conditions: clear
Temperature: 86.0 F (30.0 C)
Dew Point: 46.0 F (7.8 C)
Relative Humidity: 24%
Pressure (altimeter): 29.8 in. Hg (1009 hPa)
ob: KIPL 220753Z AUTO 34005KT 10SM CLR 30/08 A2980 RMK AO2 SLP092 T03000078 404110206
cycle: 8

Station Type Date Time Source
KIPL TAF 2020/09/22 06:27 UTC NOAA

TAF KIPL 220525Z 2206/2306 27005KT P6SM SKC
FM220800 VRB04KT P6SM SKC
FM222100 15005KT P6SM SKC
FM230300 25006KT P6SM SKC

Example: see airport list